createdAt,value
2018-02-04T09:21:20.181Z,20.05
2018-02-04T09:23:48.227Z,24.42
2018-02-04T09:26:16.106Z,20.77
2018-02-04T09:28:43.969Z,18.10
2018-02-04T09:34:19.871Z,23.52
2018-02-04T09:58:00.844Z,22.05
2018-02-04T10:00:28.709Z,22.20
2018-02-04T10:02:56.682Z,22.73
2018-02-04T10:15:45.909Z,21.80
2018-02-04T10:18:13.755Z,27.40
2018-02-04T10:20:42.438Z,29.98
2018-02-04T10:23:18.408Z,28.35
2018-02-04T10:25:48.888Z,26.10
2018-02-04T10:28:17.031Z,23.17
2018-02-04T10:30:53.015Z,30.65
2018-02-04T10:33:22.875Z,27.35
2018-02-04T10:35:51.454Z,25.88
2018-02-04T10:44:20.955Z,31.80
2018-02-04T10:46:49.442Z,33.72
2018-02-04T10:49:17.482Z,26.75
2018-02-04T10:51:51.521Z,30.98
2018-02-04T10:54:30.827Z,28.90
2018-02-04T11:00:07.313Z,31.02
2018-02-04T11:02:48.365Z,37.40
2018-02-04T11:05:18.824Z,34.15
2018-02-04T11:07:46.983Z,28.80
2018-02-04T11:10:17.401Z,31.62
2018-02-04T11:15:47.344Z,38.88
2018-02-04T11:18:23.714Z,29.60
2018-02-04T11:23:59.495Z,29.55
2018-02-04T11:26:35.228Z,40.95
2018-02-04T11:29:22.171Z,30.02
2018-02-04T11:31:50.334Z,28.52
2018-02-04T11:34:19.337Z,33.92
2018-02-04T11:39:53.577Z,31.37
2018-02-04T11:42:42.903Z,29.63
2018-02-04T11:45:10.798Z,30.60
2018-02-04T11:47:38.653Z,33.42
2018-02-04T12:08:19.956Z,35.72
2018-02-04T12:22:49.579Z,23.23
2018-02-04T12:31:09.334Z,25.33
2018-02-04T12:33:37.387Z,18.95
2018-02-04T12:36:05.270Z,23.40
2018-02-04T12:41:27.069Z,21.35
2018-02-04T12:46:46.072Z,20.62
2018-02-04T12:49:19.650Z,22.75
2018-02-04T12:55:18.605Z,21.92
2018-02-04T12:57:59.338Z,24.98
2018-02-04T13:12:26.852Z,27.30
2018-02-04T13:23:26.356Z,26.42
2018-02-04T13:28:45.827Z,28.33
2018-02-04T13:34:14.828Z,27.87
2018-02-04T13:36:49.161Z,30.77
2018-02-04T13:39:19.229Z,27.62
2018-02-04T13:41:47.722Z,25.00
2018-02-04T13:44:15.609Z,23.85
2018-02-04T13:46:44.750Z,26.40
2018-02-04T13:49:28.067Z,20.95
2018-02-04T13:54:51.272Z,25.67
2018-02-04T13:57:19.202Z,25.42
2018-02-04T13:59:47.409Z,25.67
2018-02-04T14:02:15.425Z,23.67
2018-02-04T14:04:44.505Z,24.77
2018-02-04T14:07:12.486Z,27.55
2018-02-04T14:09:40.324Z,25.80
2018-02-04T14:12:09.710Z,24.40
2018-02-04T14:14:37.667Z,24.87
2018-02-04T14:20:25.572Z,26.30
2018-02-04T14:22:53.395Z,24.50
2018-02-04T14:25:21.273Z,30.15
2018-02-04T14:43:09.938Z,26.12
2018-02-04T14:45:45.135Z,27.60
2018-02-04T14:48:16.364Z,24.20
2018-02-04T14:50:44.607Z,27.73
2018-02-04T14:53:33.295Z,22.27
2018-02-04T15:01:58.543Z,26.00
2018-02-04T15:19:09.444Z,27.50
2018-02-04T15:21:48.929Z,25.20
2018-02-04T15:24:17.120Z,30.17
2018-02-04T15:29:55.422Z,27.75
2018-02-04T15:32:23.844Z,25.67
2018-02-04T15:34:52.010Z,26.58
2018-02-04T15:37:20.495Z,26.50
2018-02-04T15:39:49.268Z,31.45
2018-02-04T15:42:23.284Z,24.92
2018-02-04T15:44:53.479Z,30.20
2018-02-04T15:47:21.637Z,27.52
2018-02-04T15:49:49.788Z,26.35
2018-02-04T15:52:20.297Z,27.75
2018-02-04T15:57:43.843Z,31.23
2018-02-04T16:05:39.429Z,28.08
2018-02-04T16:11:07.275Z,31.40
2018-02-04T16:13:35.117Z,29.83
2018-02-04T16:16:03.097Z,36.40
2018-02-04T16:18:31.062Z,35.88
2018-02-04T16:27:19.885Z,42.60
2018-02-04T16:32:43.096Z,47.65
2018-02-04T16:35:11.213Z,55.12
2018-02-04T16:37:39.457Z,34.25
2018-02-04T16:40:07.397Z,44.72
2018-02-04T16:42:36.127Z,50.88
2018-02-04T16:45:04.092Z,46.05
2018-02-04T16:47:31.938Z,35.20
2018-02-04T16:49:59.781Z,45.95
2018-02-04T16:52:27.705Z,38.47
2018-02-04T16:54:55.556Z,43.47
2018-02-04T16:57:23.400Z,41.28
2018-02-04T16:59:53.339Z,35.22
2018-02-04T17:05:00.301Z,40.33
2018-02-04T17:13:21.397Z,37.45
2018-02-04T17:15:49.985Z,35.80
2018-02-04T17:18:20.317Z,40.30
2018-02-04T17:20:49.321Z,38.63
2018-02-04T17:23:28.853Z,31.27
2018-02-04T17:26:08.046Z,39.42
2018-02-04T17:28:41.408Z,38.88
2018-02-04T17:34:19.200Z,33.97
2018-02-04T17:36:55.425Z,38.33
2018-02-04T17:42:28.358Z,30.70
2018-02-04T17:51:08.600Z,33.17
2018-02-04T17:53:36.460Z,44.13
2018-02-04T17:56:04.288Z,45.58
2018-02-04T17:58:32.118Z,42.95
2018-02-04T18:01:00.041Z,36.33
2018-02-04T18:03:27.875Z,41.28
2018-02-04T18:05:55.705Z,40.20
2018-02-04T18:08:24.266Z,38.42
2018-02-04T18:10:53.441Z,44.88
2018-02-04T18:13:22.533Z,38.03
2018-02-04T18:15:50.397Z,35.40
2018-02-04T18:18:18.263Z,37.13
2018-02-04T18:20:46.080Z,33.95
2018-02-04T18:23:13.912Z,40.47
2018-02-04T18:25:41.748Z,40.95
2018-02-04T18:28:09.648Z,32.45
2018-02-04T18:30:37.552Z,42.58
2018-02-04T18:33:08.080Z,32.67
2018-02-04T18:35:36.001Z,34.35
2018-02-04T18:38:04.122Z,33.83
2018-02-04T18:40:34.137Z,52.13
2018-02-04T18:43:03.598Z,36.53
2018-02-04T18:45:31.590Z,43.92
2018-02-04T18:47:59.837Z,34.60
2018-02-04T18:50:28.184Z,34.90
2018-02-04T18:52:56.141Z,37.75
2018-02-04T18:55:24.017Z,32.55
2018-02-04T18:57:51.925Z,30.55
2018-02-04T19:00:29.458Z,30.67
2018-02-04T19:02:57.519Z,31.50
2018-02-04T19:05:25.425Z,33.95
2018-02-04T19:08:00.873Z,24.67
2018-02-04T19:10:28.917Z,40.60
2018-02-04T19:15:57.954Z,31.10
2018-02-04T19:18:25.797Z,26.65
2018-02-04T19:23:35.262Z,30.62
2018-02-04T19:26:03.114Z,32.38
2018-02-04T19:31:35.952Z,37.20
2018-02-04T19:34:04.235Z,26.92
2018-02-04T19:36:49.009Z,23.30
2018-02-04T19:45:16.838Z,27.62
2018-02-04T19:47:57.442Z,29.37
2018-02-04T19:50:25.361Z,28.48
2018-02-04T19:52:53.296Z,25.42
2018-02-04T19:55:21.123Z,26.87
2018-02-04T19:57:48.959Z,29.35
2018-02-04T20:00:16.786Z,24.87
2018-02-04T20:02:44.623Z,27.48
2018-02-04T20:05:12.484Z,29.23
2018-02-04T20:07:40.332Z,23.77
2018-02-04T20:10:08.168Z,30.90
2018-02-04T20:12:36.039Z,35.28
2018-02-04T20:15:03.856Z,24.95
2018-02-04T20:17:31.700Z,26.95
2018-02-04T20:19:59.525Z,24.33
2018-02-04T20:22:27.445Z,29.60
2018-02-04T20:24:55.336Z,28.02
2018-02-04T20:27:23.181Z,26.90
2018-02-04T20:29:51.353Z,27.62
2018-02-04T20:32:25.311Z,24.10
2018-02-04T20:34:53.119Z,30.52
2018-02-04T20:37:20.964Z,24.70
2018-02-04T20:39:48.825Z,32.17
2018-02-04T20:42:18.082Z,32.60
2018-02-04T20:44:55.326Z,32.92
2018-02-04T20:50:17.949Z,33.00
2018-02-04T20:52:46.916Z,28.83
2018-02-04T20:55:15.618Z,29.50
2018-02-04T20:57:53.605Z,26.75
2018-02-04T21:00:22.283Z,33.72
2018-02-04T21:02:50.306Z,23.95
2018-02-04T21:05:19.039Z,32.20
2018-02-04T21:07:46.917Z,32.20
2018-02-04T21:10:15.724Z,30.52
2018-02-04T21:12:43.765Z,28.25
2018-02-04T21:15:15.297Z,29.10
2018-02-04T21:17:45.244Z,24.15
2018-02-04T21:20:18.719Z,26.60
2018-02-04T21:22:46.859Z,27.85
2018-02-04T21:25:20.049Z,25.73
2018-02-04T21:27:54.345Z,32.65
2018-02-04T21:30:23.176Z,27.45
2018-02-04T21:32:57.983Z,36.15
2018-02-04T21:35:35.238Z,25.02
2018-02-04T21:41:13.502Z,42.33
2018-02-04T21:43:41.348Z,26.48
2018-02-04T21:46:09.160Z,30.02
2018-02-04T21:48:37.006Z,26.67
2018-02-04T21:51:05.067Z,24.25
2018-02-04T21:53:33.035Z,33.33
2018-02-04T21:56:00.840Z,29.95
2018-02-04T21:58:28.668Z,23.87
2018-02-04T22:00:56.467Z,25.88
2018-02-04T22:03:24.297Z,28.87
2018-02-04T22:05:52.131Z,22.75
2018-02-04T22:08:25.919Z,25.67
2018-02-04T22:10:53.752Z,26.62
2018-02-04T22:13:21.600Z,28.98
2018-02-04T22:15:49.431Z,23.83
2018-02-04T22:18:17.277Z,21.73
2018-02-04T22:20:45.108Z,25.50
2018-02-04T22:23:13.612Z,23.92
2018-02-04T22:25:50.984Z,20.12
2018-02-04T22:28:18.952Z,22.45
2018-02-04T22:33:27.218Z,24.27
2018-02-04T22:36:02.197Z,20.52
2018-02-04T22:38:31.737Z,28.15
2018-02-04T22:40:59.908Z,18.20
2018-02-04T22:43:27.740Z,16.73
2018-02-04T22:45:55.585Z,24.87
2018-02-04T22:48:23.405Z,18.33
2018-02-04T22:50:51.236Z,14.80
2018-02-04T22:53:19.080Z,19.17
2018-02-04T22:58:47.519Z,18.77
2018-02-04T23:01:18.788Z,16.83
2018-02-04T23:03:46.613Z,21.55
2018-02-04T23:06:15.909Z,13.05
2018-02-04T23:08:47.393Z,16.85
2018-02-04T23:11:20.182Z,10.15
2018-02-04T23:16:53.005Z,18.12
2018-02-04T23:22:20.016Z,20.48
2018-02-04T23:24:48.074Z,19.45
2018-02-04T23:27:15.943Z,15.95
2018-02-04T23:29:43.767Z,16.10
2018-02-04T23:32:11.617Z,15.45
2018-02-04T23:34:41.208Z,20.67
2018-02-04T23:37:19.304Z,16.27
2018-02-04T23:39:48.288Z,11.25
2018-02-04T23:45:19.769Z,20.02
2018-02-04T23:47:47.611Z,13.93
2018-02-04T23:50:17.304Z,14.48
2018-02-04T23:52:45.625Z,10.77
2018-02-04T23:55:13.717Z,12.57
2018-02-04T23:57:43.636Z,15.02
